Edison, NJ

8:03 AM EDT on September 05, 2015 (GMT -0400)
North Edison (Inman Grove Area) | | Change Station
CLOSE
Current Station
Personal Weather Station
Location: Edison, NJ
Elevation: 121 ft
Nearby Weather Stations

Elev 121 ft 40.59 °N, 74.36 °W | Updated 3 seconds ago

Partly Cloudy
Partly Cloudy
66.1 °F
Feels Like 66.1 °F
N
1.0
Wind Variable Wind from East
Gusts 2.0 mph

Today
High -- | Low -- °F
--% Chance of Precip.
Yesterday
High -- | Low -- °F
Precip. -- in
6:28 AM 7:23 PM
Waning Gibbous, 49% visible
Pressure 30.29 in
Visibility 10.0 miles
Clouds Mostly Cloudy 1800 ft
Dew Point 64 °F
Humidity 92%
Rainfall 0.00 in
Snow Depth Not available.
UV 1 out of 12
Pollen 9.30 out of 12
Air Quality Not available.
Flu Activity Not available.
METAR KLDJ 051155Z AUTO 09004KT 10SM BKN018 21/16 A3029 RMK AO2 T02060156 10215 20195
Pressure 30.29 in
Visibility 10.0 miles
Clouds Mostly Cloudy 1800 ft
Dew Point 64 °F
Humidity 92%
Rainfall 0.00 in
Snow Depth Not available.
UV 1 out of 12
Pollen 9.30 out of 12
Air Quality Not available.
Flu Activity Not available.
METAR KLDJ 051155Z AUTO 09004KT 10SM BKN018 21/16 A3029 RMK AO2 T02060156 10215 20195

10-Day Weather Forecast

×

Almanac

Astronomy

Sep. 05, 2015 Rise Set
Actual Time
Civil Twilight
Nautical Twilight
Astronomical Twilight
Moon
Length of Visible Light
Length of Day
Tomorrow will be .
, % of the Moon is Illuminated

Today's Extremes

State Highs State Lows

Community

WunderPhotos

Upload Photos

1,852,453 photos uploaded!

WunderBlogs® & News

Nearby

Air Quality

  Air Quality AQ Index Pollutant
Not available.

Snow Depth

Station Depth Elevation

Earthquake Activity

City Distance Mag. Time & Date
Minimum magnitude displayed is 2.5.

Coastal Water Temperatures

Place Temperature

Stations

Nearby Weather Stations

Station Location Temp. Windchill Dew Point Humidity Wind Precip. Elev Updated Type